Terminal Aerodrome Forecast
Issued by NWS

Home | Current Version | Previous Version | Text Only | Print | Product List | Glossary On
Versions: 1 2 3 4 5 6 7 8 9 10 11 12 13 14 15 16
000
FTUS45 KABQ 221750
TAFSAF
TAF
KSAF 221750Z 2218/2318 17010KT P6SM SCT035
      TEMPO 2218/2220 BKN025
     FM222100 19017G27KT P6SM SCT050
     FM230200 14011KT P6SM SCT120=

USA.gov is the U.S. government's official web portal to all federal, state and local government web resources and services.